Time;durP1;ratioP1;P1;durP2;ratioP2;P2;SDS_P1;SDS_P2;PMS_P1;PMS_P2;Temp;Humidity;BMP_temperature;BMP_pressure;BME280_temperature;BME280_humidity;BME280_pressure;Samples;Min_cycle;Max_cycle;Signal;HPM_P1;HPM_P2
2022/06/28 00:01:53;;;;;;;3.70;3.40;;;24.10;57.90;;;;;;5050249;28;20485;-87
2022/06/28 00:04:21;;;;;;;3.77;3.23;;;24.10;57.40;;;;;;5054098;28;20471;-90
2022/06/28 00:06:48;;;;;;;3.77;3.47;;;24.10;56.90;;;;;;5064752;28;20448;-88
2022/06/28 00:09:16;;;;;;;3.53;3.17;;;24.10;56.60;;;;;;5051966;28;20453;-87
2022/06/28 00:11:43;;;;;;;3.83;3.53;;;24.00;56.90;;;;;;5039829;28;20449;-88
2022/06/28 00:16:54;;;;;;;3.40;3.20;;;24.00;57.00;;;;;;5038927;28;20536;-91
2022/06/28 00:19:21;;;;;;;3.50;3.20;;;24.10;56.60;;;;;;5041016;28;20992;-87
2022/06/28 00:21:49;;;;;;;3.27;3.00;;;24.00;56.40;;;;;;5054693;28;21787;-88
2022/06/28 00:24:16;;;;;;;3.63;3.33;;;24.10;56.40;;;;;;5038317;28;20452;-88
2022/06/28 00:26:43;;;;;;;5.20;3.30;;;24.10;56.20;;;;;;5070679;28;21000;-87
2022/06/28 00:29:11;;;;;;;3.00;2.67;;;24.10;56.00;;;;;;5056389;28;20822;-87
2022/06/28 00:31:37;;;;;;;3.23;3.03;;;24.00;55.90;;;;;;5055620;28;20460;-91
2022/06/28 00:34:06;;;;;;;4.60;3.80;;;24.00;55.80;;;;;;5057483;28;20476;-87
2022/06/28 00:36:33;;;;;;;3.67;3.27;;;23.90;55.90;;;;;;5068387;28;21221;-90
2022/06/28 00:39:00;;;;;;;2.67;2.47;;;23.80;56.00;;;;;;5050592;28;20445;-90
2022/06/28 00:41:28;;;;;;;3.70;3.00;;;23.80;55.80;;;;;;5051881;28;20971;-88
2022/06/28 00:43:56;;;;;;;2.80;2.60;;;23.70;55.70;;;;;;5069530;28;20507;-87
2022/06/28 00:46:24;;;;;;;3.10;2.80;;;23.60;55.80;;;;;;5059838;28;20453;-88
2022/06/28 00:48:51;;;;;;;3.47;3.03;;;23.60;55.60;;;;;;5049973;28;21029;-87
2022/06/28 00:51:19;;;;;;;2.70;2.50;;;23.50;55.80;;;;;;5040208;28;20882;-88
2022/06/28 00:53:46;;;;;;;3.20;3.00;;;23.50;55.90;;;;;;5049751;28;20576;-87
2022/06/28 00:56:13;;;;;;;3.10;2.67;;;23.40;56.00;;;;;;5053665;28;20535;-89
2022/06/28 00:58:40;;;;;;;3.87;2.87;;;23.40;55.90;;;;;;5052355;28;20444;-89
2022/06/28 01:01:07;;;;;;;5.77;3.03;;;23.30;55.90;;;;;;5052330;28;20469;-89
2022/06/28 01:03:34;;;;;;;2.77;2.57;;;23.30;55.80;;;;;;5044584;28;20893;-87
2022/06/28 01:06:02;;;;;;;3.17;2.90;;;23.30;55.70;;;;;;5056103;28;20441;-87
2022/06/28 01:08:30;;;;;;;2.70;2.27;;;23.30;55.70;;;;;;5044384;28;20564;-88
2022/06/28 01:11:18;;;;;;;3.03;2.77;;;23.30;55.80;;;;;;5054906;28;20525;-87
2022/06/28 01:13:47;;;;;;;2.50;2.30;;;23.20;55.60;;;;;;5054550;28;20566;-89
2022/06/28 01:16:14;;;;;;;5.90;2.30;;;23.10;55.40;;;;;;5054209;28;20853;-88
2022/06/28 01:18:42;;;;;;;2.93;2.33;;;23.10;55.30;;;;;;5056267;28;20520;-88
2022/06/28 01:21:43;;;;;;;2.27;2.10;;;23.10;55.10;;;;;;5037398;28;20440;-89
2022/06/28 01:24:14;;;;;;;2.93;2.43;;;23.10;55.20;;;;;;5047148;28;20640;-88
2022/06/28 01:26:47;;;;;;;3.13;2.33;;;23.00;54.60;;;;;;5065474;28;20444;-87
2022/06/28 01:29:16;;;;;;;2.13;2.03;;;23.00;54.60;;;;;;5063364;28;20876;-87
2022/06/28 01:32:19;;;;;;;2.17;1.97;;;23.00;54.70;;;;;;5044138;28;20476;-88
2022/06/28 01:34:47;;;;;;;2.30;2.10;;;22.90;54.40;;;;;;5049295;28;20448;-87
2022/06/28 01:37:16;;;;;;;2.70;1.90;;;22.80;54.40;;;;;;5042540;28;20531;-87
2022/06/28 01:39:44;;;;;;;2.50;2.33;;;22.80;54.50;;;;;;5063536;28;20483;-87
2022/06/28 01:42:11;;;;;;;1.87;1.77;;;22.80;54.40;;;;;;5058397;28;21173;-89
2022/06/28 01:44:42;;;;;;;1.80;1.70;;;22.80;54.30;;;;;;5057389;28;20448;-90
2022/06/28 01:47:25;;;;;;;2.17;2.03;;;22.80;54.20;;;;;;5057192;28;20523;-88
2022/06/28 01:50:02;;;;;;;4.67;2.10;;;22.80;54.10;;;;;;5040940;28;20452;-90
2022/06/28 01:52:41;;;;;;;3.40;2.53;;;22.70;54.40;;;;;;5064657;28;20510;-88
2022/06/28 01:55:21;;;;;;;2.80;2.10;;;22.70;53.90;;;;;;5043971;28;20441;-90
2022/06/28 01:57:48;;;;;;;2.70;2.17;;;22.60;53.50;;;;;;5037507;28;20441;-89
2022/06/28 02:00:16;;;;;;;4.80;2.20;;;22.60;53.60;;;;;;5045630;28;20481;-89
2022/06/28 02:02:45;;;;;;;3.57;1.90;;;22.50;54.10;;;;;;5057605;28;20495;-87
2022/06/28 02:05:31;;;;;;;10.67;2.53;;;22.50;54.00;;;;;;5060693;28;20461;-89
2022/06/28 02:07:59;;;;;;;4.37;1.80;;;22.50;54.00;;;;;;5057539;28;20472;-87
2022/06/28 02:10:32;;;;;;;2.33;1.70;;;22.40;53.20;;;;;;5055166;28;20534;-88
2022/06/28 02:13:01;;;;;;;6.23;2.10;;;22.30;53.30;;;;;;5041553;28;20485;-90
2022/06/28 02:15:29;;;;;;;2.03;1.87;;;22.30;53.50;;;;;;5056473;28;20525;-88
2022/06/28 02:17:59;;;;;;;5.30;2.40;;;22.20;53.50;;;;;;5058212;28;21119;-90
2022/06/28 02:20:26;;;;;;;2.67;1.53;;;22.00;53.80;;;;;;5042313;28;20469;-88
2022/06/28 02:22:54;;;;;;;3.13;1.87;;;22.00;53.90;;;;;;5056338;28;20460;-89
2022/06/28 02:25:21;;;;;;;1.90;1.80;;;21.90;53.20;;;;;;5059405;28;20994;-89
2022/06/28 02:27:51;;;;;;;1.83;1.70;;;21.90;53.30;;;;;;5047198;28;20536;-90
2022/06/28 02:30:21;;;;;;;3.10;1.50;;;21.80;53.90;;;;;;5055389;28;21064;-87
2022/06/28 02:32:48;;;;;;;3.93;2.10;;;21.90;53.90;;;;;;5044637;28;20469;-87
2022/06/28 02:40:46;;;;;;;2.40;2.20;;;20.90;55.60;;;;;;5027612;28;20465;-87
2022/06/28 02:43:15;;;;;;;2.23;2.00;;;21.10;55.40;;;;;;5054869;28;20525;-89
2022/06/28 02:45:42;;;;;;;3.40;2.30;;;21.20;54.80;;;;;;5045957;28;20499;-87
2022/06/28 02:48:10;;;;;;;3.00;2.13;;;21.30;54.40;;;;;;5047557;28;20473;-88
2022/06/28 02:50:37;;;;;;;3.67;2.90;;;21.40;54.50;;;;;;5045914;28;20528;-87
2022/06/28 02:53:04;;;;;;;3.00;2.60;;;21.40;54.20;;;;;;5058284;28;21248;-89
2022/06/28 02:55:31;;;;;;;2.30;2.20;;;21.50;54.00;;;;;;5062421;28;20457;-87
2022/06/28 02:57:58;;;;;;;2.27;2.10;;;21.50;53.80;;;;;;5045661;28;20455;-90
2022/06/28 03:00:27;;;;;;;3.10;1.90;;;21.50;53.50;;;;;;5041615;28;20542;-89
2022/06/28 03:02:54;;;;;;;2.40;2.20;;;21.20;53.70;;;;;;5055132;28;20481;-90
2022/06/28 03:05:23;;;;;;;5.07;2.17;;;21.00;54.50;;;;;;5045178;28;20506;-89
2022/06/28 03:07:50;;;;;;;2.43;2.20;;;20.80;54.40;;;;;;5062958;28;20832;-89
2022/06/28 03:10:19;;;;;;;2.40;2.20;;;20.80;54.80;;;;;;5041808;28;20445;-87
2022/06/28 03:12:46;;;;;;;2.40;2.10;;;20.90;54.70;;;;;;5059280;28;20559;-88
2022/06/28 03:15:14;;;;;;;3.27;3.03;;;21.00;54.20;;;;;;5037474;28;20485;-87
2022/06/28 03:17:43;;;;;;;6.57;2.73;;;21.10;54.00;;;;;;5061546;28;20457;-86
2022/06/28 03:20:12;;;;;;;2.30;2.20;;;21.10;54.00;;;;;;5040488;28;20467;-89
2022/06/28 03:22:40;;;;;;;4.17;2.10;;;21.10;53.40;;;;;;5073538;28;20472;-87
2022/06/28 03:25:08;;;;;;;3.40;1.80;;;21.10;53.90;;;;;;5040621;28;20452;-91
2022/06/28 03:27:35;;;;;;;3.73;2.90;;;21.10;53.80;;;;;;5048197;28;20944;-88
2022/06/28 03:30:03;;;;;;;3.70;3.00;;;21.10;54.30;;;;;;5057389;28;20445;-88
2022/06/28 03:32:31;;;;;;;6.37;3.97;;;20.80;55.10;;;;;;5046396;28;20584;-87
2022/06/28 03:35:00;;;;;;;4.27;3.20;;;20.70;55.40;;;;;;5060170;28;20440;-90
2022/06/28 03:40:16;;;;;;;3.90;3.13;;;20.90;54.30;;;;;;5036819;28;20469;-87
2022/06/28 03:42:48;;;;;;;4.50;2.80;;;21.00;54.40;;;;;;5039179;28;20870;-87
2022/06/28 03:45:15;;;;;;;8.73;3.10;;;21.00;54.10;;;;;;5055984;28;20933;-88
2022/06/28 03:47:50;;;;;;;2.80;2.60;;;21.00;54.00;;;;;;5064223;28;20444;-89
2022/06/28 03:50:37;;;;;;;2.50;2.30;;;20.90;54.70;;;;;;5055327;28;20926;-87
2022/06/28 03:53:17;;;;;;;3.30;2.30;;;20.90;54.20;;;;;;5034316;28;20480;-87
2022/06/28 03:56:11;;;;;;;9.30;3.20;;;20.90;53.60;;;;;;5050167;28;20952;-90
2022/06/28 03:58:38;;;;;;;3.20;2.57;;;20.90;54.10;;;;;;5044153;28;20449;-87
2022/06/28 04:01:05;;;;;;;5.40;3.20;;;20.80;54.30;;;;;;5054596;28;21633;-90
2022/06/28 04:03:34;;;;;;;5.00;2.57;;;20.80;54.30;;;;;;5056752;28;20552;-88
2022/06/28 04:06:02;;;;;;;5.37;2.87;;;20.90;54.30;;;;;;5051319;28;20991;-86
2022/06/28 04:08:29;;;;;;;2.70;2.40;;;20.90;54.10;;;;;;5052804;28;20452;-87
2022/06/28 04:13:39;;;;;;;10.17;3.57;;;20.90;54.30;;;;;;5050633;28;20480;-90
2022/06/28 04:16:06;;;;;;;10.20;2.97;;;20.90;54.50;;;;;;5054281;28;20461;-88
2022/06/28 04:18:35;;;;;;;3.20;2.20;;;20.90;54.50;;;;;;5055448;28;20816;-87
2022/06/28 04:21:36;;;;;;;4.57;2.97;;;20.90;54.30;;;;;;5051817;28;20472;-88
2022/06/28 04:24:22;;;;;;;5.87;2.60;;;21.00;54.30;;;;;;5038212;28;20888;-88
2022/06/28 04:26:58;;;;;;;2.10;1.90;;;21.00;54.40;;;;;;5070355;28;20481;-86
2022/06/28 04:29:28;;;;;;;2.77;2.50;;;21.00;54.40;;;;;;5056286;28;20444;-86
2022/06/28 04:31:55;;;;;;;2.80;2.47;;;21.00;54.70;;;;;;5055687;28;20523;-88
2022/06/28 04:34:22;;;;;;;2.53;2.33;;;21.00;54.90;;;;;;5056763;28;20456;-88
2022/06/28 04:36:54;;;;;;;4.13;2.60;;;21.00;54.60;;;;;;5030350;28;20469;-87
2022/06/28 04:39:23;;;;;;;3.63;3.00;;;21.00;54.80;;;;;;5057818;28;20817;-88
2022/06/28 04:42:05;;;;;;;6.63;2.80;;;21.00;54.80;;;;;;5039175;28;20567;-88
2022/06/28 04:44:38;;;;;;;3.70;2.87;;;21.00;54.80;;;;;;5039347;28;20502;-88
2022/06/28 04:47:06;;;;;;;5.97;3.10;;;21.00;54.80;;;;;;5060878;28;20446;-87
2022/06/28 04:49:34;;;;;;;4.40;2.30;;;21.00;55.40;;;;;;5049674;28;20808;-87
2022/06/28 04:52:02;;;;;;;7.00;2.67;;;21.00;55.50;;;;;;5029330;28;20464;-87
2022/06/28 04:54:43;;;;;;;10.30;2.70;;;21.00;55.20;;;;;;5043227;28;20437;-88
2022/06/28 04:57:18;;;;;;;5.90;3.67;;;20.60;56.70;;;;;;5025865;28;21087;-88
2022/06/28 04:59:54;;;;;;;10.80;3.53;;;20.60;57.40;;;;;;5044260;28;20875;-88
2022/06/28 05:02:39;;;;;;;6.60;3.03;;;20.60;57.30;;;;;;5048280;28;21038;-88
2022/06/28 05:05:12;;;;;;;3.13;2.93;;;20.70;57.20;;;;;;5049365;28;20449;-88
2022/06/28 05:07:42;;;;;;;3.50;3.10;;;20.70;57.10;;;;;;5053186;28;20453;-88
2022/06/28 05:10:16;;;;;;;4.33;3.33;;;20.80;56.90;;;;;;5042934;28;20449;-88
2022/06/28 05:12:53;;;;;;;6.00;3.53;;;20.90;56.90;;;;;;5042667;28;20891;-88
2022/06/28 05:15:20;;;;;;;7.60;3.70;;;20.90;56.80;;;;;;5075457;28;20712;-87
2022/06/28 05:18:09;;;;;;;6.37;4.33;;;21.00;56.50;;;;;;5045062;28;20469;-86
2022/06/28 05:20:36;;;;;;;6.60;3.70;;;20.90;57.20;;;;;;5048286;28;20460;-88
2022/06/28 05:23:05;;;;;;;5.77;4.47;;;20.80;57.70;;;;;;5047682;28;20504;-87
2022/06/28 05:25:53;;;;;;;8.73;4.00;;;20.70;57.90;;;;;;5053204;28;20444;-87
2022/06/28 05:28:20;;;;;;;6.70;4.00;;;20.50;58.80;;;;;;5061739;28;20453;-86
2022/06/28 05:30:47;;;;;;;10.43;4.80;;;20.70;58.60;;;;;;5045413;28;20483;-88
2022/06/28 05:33:14;;;;;;;7.67;4.37;;;20.70;58.60;;;;;;5060392;28;20481;-88
2022/06/28 05:35:41;;;;;;;10.07;3.63;;;20.50;59.30;;;;;;5045301;28;21152;-87
2022/06/28 05:38:10;;;;;;;8.07;3.40;;;20.50;59.40;;;;;;5045436;28;21298;-87
2022/06/28 05:40:37;;;;;;;4.50;3.60;;;20.50;59.80;;;;;;5074000;28;20464;-87
2022/06/28 05:43:04;;;;;;;8.80;4.23;;;20.60;59.40;;;;;;5065647;28;20479;-89
2022/06/28 05:45:31;;;;;;;6.93;3.40;;;20.90;58.70;;;;;;5046907;28;20559;-87
2022/06/28 05:47:58;;;;;;;4.23;3.43;;;21.20;58.50;;;;;;5058930;28;20468;-88
2022/06/28 05:50:25;;;;;;;5.10;3.23;;;21.40;58.00;;;;;;5050070;28;20464;-87
2022/06/28 05:52:52;;;;;;;4.43;3.33;;;21.50;57.70;;;;;;5060774;28;20559;-89
2022/06/28 05:55:21;;;;;;;6.03;3.23;;;21.60;57.90;;;;;;5036899;28;20549;-87
2022/06/28 05:57:50;;;;;;;4.10;3.23;;;21.70;56.10;;;;;;5061349;28;20492;-87
2022/06/28 06:00:17;;;;;;;6.60;2.77;;;21.80;56.00;;;;;;5052768;28;20441;-89
2022/06/28 06:02:45;;;;;;;3.90;3.00;;;21.80;56.00;;;;;;5056327;28;20554;-88
2022/06/28 06:05:12;;;;;;;2.60;2.40;;;21.80;55.70;;;;;;5067622;28;20506;-86
2022/06/28 06:07:39;;;;;;;3.80;3.10;;;21.60;55.50;;;;;;5050876;28;20448;-87
2022/06/28 06:10:09;;;;;;;7.87;2.87;;;21.90;56.40;;;;;;5060079;28;20445;-87
2022/06/28 06:12:38;;;;;;;4.90;3.90;;;22.00;55.40;;;;;;5043060;28;20865;-87
2022/06/28 06:15:06;;;;;;;2.40;2.20;;;22.00;54.10;;;;;;5051366;28;20453;-87
2022/06/28 06:17:33;;;;;;;2.40;2.23;;;22.00;53.70;;;;;;5055647;28;20459;-88
2022/06/28 06:20:00;;;;;;;2.70;1.80;;;22.10;53.10;;;;;;5052506;28;20461;-88
2022/06/28 06:22:27;;;;;;;2.13;1.90;;;22.20;51.80;;;;;;5040820;28;20472;-87
2022/06/28 06:24:55;;;;;;;2.27;1.77;;;22.20;50.80;;;;;;5036922;28;20449;-86
2022/06/28 06:27:32;;;;;;;2.80;2.10;;;22.40;50.40;;;;;;5072234;28;20508;-87
2022/06/28 06:30:02;;;;;;;2.70;1.60;;;22.60;51.60;;;;;;5057061;28;20460;-85
2022/06/28 06:32:41;;;;;;;2.10;1.83;;;22.70;50.60;;;;;;5039753;28;20880;-88
2022/06/28 06:35:47;;;;;;;4.80;2.27;;;22.70;51.00;;;;;;5042064;28;20994;-87
2022/06/28 06:38:14;;;;;;;2.87;2.57;;;22.60;51.20;;;;;;5075050;28;20892;-87
2022/06/28 06:40:42;;;;;;;7.23;2.83;;;22.60;51.60;;;;;;5060520;28;20458;-88
2022/06/28 06:43:09;;;;;;;3.30;1.77;;;22.70;52.00;;;;;;5052802;28;20473;-87
2022/06/28 06:45:38;;;;;;;4.40;2.33;;;22.90;51.90;;;;;;5052631;28;20446;-86
2022/06/28 06:48:05;;;;;;;4.90;2.13;;;23.00;51.50;;;;;;5051012;28;20808;-88
2022/06/28 06:50:32;;;;;;;4.50;2.50;;;23.30;51.20;;;;;;5053201;28;21013;-86
2022/06/28 06:53:02;;;;;;;2.27;1.87;;;23.30;50.50;;;;;;5054574;28;20472;-87
2022/06/28 06:55:29;;;;;;;5.97;2.63;;;23.50;50.70;;;;;;5051363;28;20493;-88
2022/06/28 06:57:56;;;;;;;3.93;2.07;;;23.40;50.10;;;;;;5068369;28;20462;-86
2022/06/28 07:00:23;;;;;;;3.50;2.30;;;23.30;50.20;;;;;;5054043;28;20848;-86
2022/06/28 07:02:51;;;;;;;2.83;2.07;;;23.40;50.00;;;;;;5052100;28;20493;-86
2022/06/28 07:05:18;;;;;;;6.23;2.53;;;23.40;50.00;;;;;;5033414;28;20453;-86
2022/06/28 07:07:46;;;;;;;6.40;2.00;;;23.50;49.90;;;;;;5052465;28;21131;-88
2022/06/28 07:10:13;;;;;;;3.00;1.80;;;23.70;49.40;;;;;;5040991;28;20812;-87
2022/06/28 07:12:41;;;;;;;2.43;1.83;;;24.10;49.70;;;;;;5036885;28;20456;-88
2022/06/28 07:15:09;;;;;;;5.23;2.27;;;24.30;47.90;;;;;;5036650;28;20860;-88
2022/06/28 07:17:39;;;;;;;3.10;2.13;;;24.10;48.10;;;;;;5059311;28;20827;-86
2022/06/28 07:20:09;;;;;;;1.87;1.67;;;24.30;47.90;;;;;;5035386;28;20457;-87
2022/06/28 07:22:36;;;;;;;1.63;1.53;;;24.30;47.20;;;;;;5066990;28;20559;-87
2022/06/28 07:25:05;;;;;;;3.37;1.60;;;24.10;47.00;;;;;;5063252;28;20442;-85
2022/06/28 07:27:32;;;;;;;5.30;1.73;;;24.20;47.10;;;;;;5034472;28;20461;-86
2022/06/28 07:29:58;;;;;;;3.37;1.37;;;24.30;46.70;;;;;;5050767;28;20444;-87
2022/06/28 07:32:26;;;;;;;2.10;1.50;;;24.40;46.20;;;;;;5059015;28;20555;-86
2022/06/28 07:34:53;;;;;;;3.97;1.33;;;24.70;45.50;;;;;;5048615;28;20448;-88
2022/06/28 07:37:22;;;;;;;1.83;1.73;;;24.90;43.90;;;;;;5050302;28;21148;-89
2022/06/28 07:39:50;;;;;;;1.30;1.20;;;25.10;44.90;;;;;;5037558;28;20445;-86
2022/06/28 07:42:36;;;;;;;4.33;1.40;;;25.40;42.60;;;;;;5049531;28;20835;-87
2022/06/28 07:45:22;;;;;;;4.43;1.67;;;25.70;43.10;;;;;;5049090;28;20484;-87
2022/06/28 07:47:56;;;;;;;2.53;1.50;;;25.80;41.20;;;;;;5050471;28;20532;-86
2022/06/28 07:53:14;;;;;;;1.97;1.40;;;25.70;39.60;;;;;;5065836;28;20589;-86
2022/06/28 07:56:01;;;;;;;4.73;1.37;;;25.60;41.20;;;;;;5046622;28;20507;-85
2022/06/28 07:58:33;;;;;;;2.87;1.70;;;25.80;39.70;;;;;;5041569;28;20464;-88
2022/06/28 08:01:04;;;;;;;3.07;1.20;;;26.10;40.90;;;;;;5054555;28;20465;-85
2022/06/28 08:03:31;;;;;;;1.30;1.20;;;26.20;38.80;;;;;;5037081;28;21039;-86
2022/06/28 08:05:58;;;;;;;4.77;1.53;;;26.40;40.10;;;;;;5050815;28;20465;-87
2022/06/28 08:08:31;;;;;;;2.17;1.27;;;26.20;37.20;;;;;;5039046;28;20463;-86
2022/06/28 08:11:01;;;;;;;1.57;1.07;;;26.10;36.50;;;;;;5030481;28;20455;-85
2022/06/28 08:13:30;;;;;;;3.90;1.30;;;26.10;36.20;;;;;;5058426;28;20465;-87
2022/06/28 08:15:59;;;;;;;1.93;1.00;;;26.10;35.60;;;;;;5049996;28;20532;-86
2022/06/28 08:18:26;;;;;;;1.77;1.67;;;26.20;36.20;;;;;;5048273;28;21463;-86
2022/06/28 08:20:53;;;;;;;3.20;1.27;;;26.50;37.30;;;;;;5033308;28;20506;-88
2022/06/28 08:23:20;;;;;;;4.60;1.43;;;26.50;37.00;;;;;;5050303;28;22880;-85
2022/06/28 08:25:49;;;;;;;1.23;1.13;;;26.70;36.10;;;;;;5064190;28;20981;-85
2022/06/28 08:28:16;;;;;;;1.60;1.30;;;26.80;34.50;;;;;;5055812;28;20458;-88
2022/06/28 08:30:43;;;;;;;1.77;0.93;;;26.90;35.10;;;;;;5031782;28;20473;-84
2022/06/28 08:33:11;;;;;;;2.30;1.10;;;26.40;34.60;;;;;;5051896;28;20491;-86
2022/06/28 08:35:41;;;;;;;5.67;1.90;;;26.20;33.70;;;;;;5050407;28;20545;-87
2022/06/28 08:38:09;;;;;;;1.90;1.50;;;26.40;35.40;;;;;;5051841;28;20453;-86
2022/06/28 08:40:36;;;;;;;1.43;1.33;;;26.50;33.80;;;;;;5029589;28;21158;-85
2022/06/28 08:43:07;;;;;;;2.60;1.07;;;26.40;31.60;;;;;;5067230;28;20504;-85
2022/06/28 08:45:34;;;;;;;3.93;0.93;;;26.50;33.30;;;;;;5038699;28;20866;-87
2022/06/28 08:48:11;;;;;;;1.30;1.00;;;26.80;32.60;;;;;;5047031;28;20461;-85
2022/06/28 08:50:41;;;;;;;2.33;1.03;;;27.00;31.30;;;;;;5048135;28;21100;-88
2022/06/28 08:53:09;;;;;;;1.30;1.00;;;27.10;30.20;;;;;;5055700;28;20767;-86
2022/06/28 08:55:38;;;;;;;0.80;0.80;;;27.30;31.40;;;;;;5049352;28;20454;-87
2022/06/28 08:58:09;;;;;;;1.20;1.10;;;27.20;30.00;;;;;;5052534;28;20976;-86
2022/06/28 09:00:36;;;;;;;3.53;1.20;;;27.20;32.10;;;;;;5048711;28;20455;-85
2022/06/28 09:03:03;;;;;;;2.23;1.00;;;27.40;33.10;;;;;;5051058;28;20495;-89
2022/06/28 09:05:30;;;;;;;2.97;1.10;;;27.70;32.90;;;;;;5053077;28;20513;-83
2022/06/28 09:07:58;;;;;;;2.20;1.20;;;27.70;32.30;;;;;;5052297;28;20529;-87
2022/06/28 09:10:28;;;;;;;1.20;1.10;;;27.80;32.60;;;;;;5046567;28;21018;-85
2022/06/28 09:13:11;;;;;;;1.10;0.90;;;27.80;31.00;;;;;;5048758;28;20556;-86
2022/06/28 09:15:50;;;;;;;1.70;1.07;;;27.80;29.80;;;;;;5047923;28;20448;-86
2022/06/28 09:18:18;;;;;;;1.20;1.10;;;27.60;29.80;;;;;;5050517;28;20457;-85
2022/06/28 09:20:45;;;;;;;2.50;0.80;;;27.80;31.20;;;;;;5049480;28;20455;-85
2022/06/28 09:23:22;;;;;;;1.10;1.00;;;27.80;31.40;;;;;;5044910;28;20480;-87
2022/06/28 09:25:49;;;;;;;1.27;1.13;;;27.90;29.70;;;;;;5047936;28;20441;-85
2022/06/28 09:28:28;;;;;;;4.23;1.23;;;27.80;28.50;;;;;;5046049;28;20881;-85
2022/06/28 09:31:14;;;;;;;1.27;1.03;;;27.90;29.60;;;;;;5049401;28;20544;-88
2022/06/28 09:33:42;;;;;;;2.90;1.07;;;28.20;29.40;;;;;;5050605;28;20539;-87
2022/06/28 09:36:12;;;;;;;1.10;1.00;;;28.60;29.70;;;;;;5054609;28;20448;-85
2022/06/28 09:38:42;;;;;;;3.00;1.10;;;29.10;29.60;;;;;;5055748;28;20502;-86
2022/06/28 09:41:24;;;;;;;1.17;1.07;;;29.40;29.30;;;;;;5050631;28;20448;-86
2022/06/28 09:43:57;;;;;;;0.90;0.90;;;29.80;27.80;;;;;;5053748;28;20572;-85
2022/06/28 09:46:29;;;;;;;0.87;0.83;;;29.70;26.80;;;;;;5066965;28;20481;-85
2022/06/28 09:48:58;;;;;;;1.20;0.93;;;29.70;27.00;;;;;;5050430;28;20436;-84
2022/06/28 09:51:26;;;;;;;1.23;1.10;;;29.60;26.40;;;;;;5049732;28;20542;-85
2022/06/28 09:53:55;;;;;;;1.47;1.07;;;29.60;28.00;;;;;;5052146;28;20474;-85
2022/06/28 09:56:24;;;;;;;2.27;1.40;;;29.90;26.30;;;;;;5050936;28;20855;-86
2022/06/28 09:58:52;;;;;;;3.63;1.30;;;30.00;25.90;;;;;;5059428;28;20540;-85
2022/06/28 10:01:21;;;;;;;1.03;0.90;;;30.10;26.50;;;;;;5051591;28;20456;-87
2022/06/28 10:03:49;;;;;;;1.20;1.03;;;30.00;24.90;;;;;;5054833;28;20492;-87
2022/06/28 10:06:18;;;;;;;1.20;0.93;;;30.10;25.10;;;;;;5050670;28;20457;-86
2022/06/28 10:08:46;;;;;;;1.00;0.90;;;30.10;24.70;;;;;;5054735;28;20484;-88
2022/06/28 10:11:13;;;;;;;1.80;0.90;;;30.20;24.70;;;;;;5067646;28;20461;-88
2022/06/28 10:16:45;;;;;;;1.30;0.90;;;30.60;23.50;;;;;;5039094;28;20437;-86
2022/06/28 10:19:14;;;;;;;1.10;0.93;;;30.80;23.60;;;;;;5055860;28;20507;-87
2022/06/28 10:21:46;;;;;;;1.57;1.07;;;31.00;23.80;;;;;;5062343;28;20480;-89
2022/06/28 10:24:21;;;;;;;1.23;0.90;;;31.10;23.40;;;;;;5052030;28;20803;-86
2022/06/28 10:27:14;;;;;;;1.00;0.90;;;30.90;22.70;;;;;;5052775;28;20480;-90
2022/06/28 10:30:14;;;;;;;1.13;0.93;;;31.00;24.90;;;;;;5053108;28;20457;-87
2022/06/28 10:32:44;;;;;;;1.30;1.00;;;31.10;23.80;;;;;;5054445;28;20999;-87
2022/06/28 10:35:47;;;;;;;4.93;1.20;;;31.00;24.10;;;;;;5052451;28;20444;-86
2022/06/28 10:38:17;;;;;;;2.23;0.93;;;31.00;23.50;;;;;;5045504;28;20956;-89
2022/06/28 10:40:49;;;;;;;1.43;1.10;;;30.90;23.60;;;;;;5040613;28;20456;-87
2022/06/28 10:43:37;;;;;;;1.60;1.20;;;30.50;24.10;;;;;;5050285;28;21017;-87
2022/06/28 10:46:09;;;;;;;1.40;1.00;;;30.60;23.90;;;;;;5041462;28;20952;-86
2022/06/28 10:49:08;;;;;;;1.33;1.00;;;30.90;24.00;;;;;;5052255;28;20445;-86
2022/06/28 10:51:41;;;;;;;1.77;0.90;;;30.70;24.80;;;;;;5051757;28;20449;-85
2022/06/28 10:54:09;;;;;;;1.60;1.10;;;30.80;23.20;;;;;;5049085;28;20445;-86
2022/06/28 10:56:39;;;;;;;6.07;1.20;;;31.10;24.10;;;;;;5050377;28;20820;-89
2022/06/28 10:59:10;;;;;;;2.13;1.43;;;31.40;24.00;;;;;;5048985;28;20449;-86
2022/06/28 11:01:57;;;;;;;1.67;0.90;;;31.60;23.00;;;;;;5041349;28;20473;-86
2022/06/28 11:04:30;;;;;;;1.30;0.97;;;31.60;23.00;;;;;;5052453;28;20476;-87
2022/06/28 11:07:00;;;;;;;1.00;0.90;;;31.60;22.60;;;;;;5051607;28;20441;-88
2022/06/28 11:09:46;;;;;;;3.93;1.20;;;31.80;22.50;;;;;;5040943;28;20469;-89
2022/06/28 11:12:15;;;;;;;1.23;1.00;;;31.80;22.70;;;;;;5052536;28;20477;-87
2022/06/28 11:14:47;;;;;;;4.17;1.00;;;31.60;22.90;;;;;;5051650;28;20524;-85
2022/06/28 11:17:20;;;;;;;1.10;1.00;;;31.40;22.50;;;;;;5048799;28;20558;-87
2022/06/28 11:19:53;;;;;;;1.53;1.20;;;31.60;22.60;;;;;;5050397;28;20478;-85
2022/06/28 11:22:22;;;;;;;1.33;1.00;;;31.80;23.60;;;;;;5066746;28;20470;-90
2022/06/28 11:24:52;;;;;;;3.03;0.97;;;31.60;22.90;;;;;;5051458;28;20532;-87
2022/06/28 11:27:21;;;;;;;1.40;1.20;;;31.80;23.70;;;;;;5049276;28;20469;-85
2022/06/28 11:30:02;;;;;;;1.10;1.00;;;32.00;23.30;;;;;;5052271;28;20451;-86
2022/06/28 11:32:32;;;;;;;2.40;1.00;;;32.20;24.00;;;;;;5058017;28;20473;-86
2022/06/28 11:35:06;;;;;;;2.47;1.10;;;32.00;23.50;;;;;;5049870;28;20449;-87
2022/06/28 11:37:46;;;;;;;1.43;1.20;;;32.30;24.10;;;;;;5051959;28;21434;-87
2022/06/28 11:40:14;;;;;;;1.10;1.00;;;32.50;23.30;;;;;;5047908;28;20457;-86
2022/06/28 11:42:40;;;;;;;1.30;0.97;;;32.70;24.20;;;;;;5051031;28;20534;-89
2022/06/28 11:45:12;;;;;;;4.83;0.93;;;32.90;23.10;;;;;;5049909;28;20591;-89
2022/06/28 11:47:42;;;;;;;4.90;1.20;;;32.40;22.50;;;;;;5050202;28;20440;-88
2022/06/28 11:50:16;;;;;;;2.83;1.13;;;32.70;24.00;;;;;;5051675;28;20455;-86
2022/06/28 11:52:51;;;;;;;1.00;0.90;;;32.80;23.80;;;;;;5057244;28;20559;-88
2022/06/28 11:55:20;;;;;;;1.17;1.00;;;33.00;23.20;;;;;;5050785;28;20447;-86
2022/06/28 11:58:10;;;;;;;1.10;1.00;;;33.10;23.40;;;;;;5036494;28;20446;-90
2022/06/28 12:00:37;;;;;;;2.03;1.20;;;33.00;23.00;;;;;;5066013;28;20994;-87
2022/06/28 12:03:06;;;;;;;1.17;1.07;;;33.10;22.30;;;;;;5049064;28;20473;-86
2022/06/28 12:05:37;;;;;;;1.77;1.10;;;32.90;22.30;;;;;;5031537;28;20448;-87
2022/06/28 12:08:08;;;;;;;3.80;0.90;;;32.90;22.70;;;;;;5064879;28;20478;-86
2022/06/28 12:10:35;;;;;;;12.60;1.10;;;32.80;22.60;;;;;;5048846;28;20479;-88
2022/06/28 12:13:11;;;;;;;2.80;1.33;;;32.90;22.90;;;;;;5047459;28;20515;-86
2022/06/28 12:15:39;;;;;;;2.60;1.10;;;33.00;21.70;;;;;;5050386;28;20436;-87
2022/06/28 12:18:08;;;;;;;3.40;1.03;;;32.70;21.60;;;;;;5049196;28;20445;-91
2022/06/28 12:20:37;;;;;;;2.43;1.23;;;32.80;22.00;;;;;;5057786;28;20450;-86
2022/06/28 12:23:11;;;;;;;1.00;1.00;;;32.90;22.80;;;;;;5050673;28;20477;-88
2022/06/28 12:25:38;;;;;;;1.93;1.10;;;32.90;22.00;;;;;;5064988;28;20817;-86
2022/06/28 12:28:05;;;;;;;1.20;1.10;;;33.00;21.80;;;;;;5051933;28;20968;-86
2022/06/28 12:30:32;;;;;;;1.00;0.90;;;33.30;22.70;;;;;;5051914;28;20452;-91
2022/06/28 12:32:59;;;;;;;1.00;0.83;;;33.60;21.70;;;;;;5053453;28;20472;-88
2022/06/28 12:35:27;;;;;;;1.20;1.03;;;34.00;22.50;;;;;;5053433;28;20567;-88
2022/06/28 12:37:55;;;;;;;1.70;1.37;;;34.40;21.90;;;;;;5033492;28;20961;-89
2022/06/28 12:40:25;;;;;;;1.00;0.90;;;34.10;20.60;;;;;;5055059;28;20489;-86
2022/06/28 12:42:52;;;;;;;1.10;1.00;;;33.90;21.50;;;;;;5057673;28;20519;-87
2022/06/28 12:45:19;;;;;;;0.97;0.87;;;33.70;20.90;;;;;;5048494;28;20499;-89
2022/06/28 12:47:46;;;;;;;1.47;1.27;;;33.70;21.60;;;;;;5032574;28;20442;-87
2022/06/28 12:50:15;;;;;;;1.60;0.90;;;33.50;21.20;;;;;;5047667;28;20952;-89
2022/06/28 12:52:43;;;;;;;3.23;1.10;;;33.60;22.50;;;;;;5050928;28;21014;-87
2022/06/28 12:55:12;;;;;;;1.10;0.97;;;33.80;21.50;;;;;;5049809;28;20873;-89
2022/06/28 12:57:40;;;;;;;1.10;0.87;;;33.60;21.90;;;;;;5052353;28;20934;-88
2022/06/28 13:00:11;;;;;;;2.03;1.30;;;33.50;20.90;;;;;;5065130;28;20451;-87
2022/06/28 13:02:38;;;;;;;1.27;1.17;;;33.90;20.70;;;;;;5049437;28;20497;-87
2022/06/28 13:05:06;;;;;;;1.00;0.90;;;33.70;20.20;;;;;;5052343;28;20476;-87
2022/06/28 13:07:33;;;;;;;1.13;1.03;;;33.60;20.90;;;;;;5055217;28;20517;-88
2022/06/28 13:10:00;;;;;;;1.13;1.00;;;33.60;21.40;;;;;;5053816;28;20438;-86
2022/06/28 13:12:28;;;;;;;1.57;1.10;;;33.60;20.60;;;;;;5047107;28;20473;-89
2022/06/28 13:14:55;;;;;;;1.03;0.93;;;33.80;20.70;;;;;;5050726;28;20472;-88
2022/06/28 13:17:23;;;;;;;1.00;0.90;;;33.40;20.30;;;;;;5054719;28;20452;-87
2022/06/28 13:19:50;;;;;;;1.13;0.90;;;33.40;21.70;;;;;;5053238;28;20455;-89
2022/06/28 13:22:17;;;;;;;1.10;0.90;;;33.50;21.20;;;;;;5053386;28;20469;-88
2022/06/28 13:24:46;;;;;;;1.10;0.80;;;33.50;21.30;;;;;;5057298;28;20468;-87